Time;durP1;ratioP1;P1;durP2;ratioP2;P2;SDS_P1;SDS_P2;PMS_P1;PMS_P2;Temp;Humidity;BMP_temperature;BMP_pressure;BME280_temperature;BME280_humidity;BME280_pressure;Samples;Min_cycle;Max_cycle;Signal;HPM_P1;HPM_P2
2022/09/03 00:00:18;;;;;;;3.33;1.30;;;17.90;97.70;;;;;;4958837;28;20124;-85
2022/09/03 00:02:53;;;;;;;4.13;1.40;;;17.80;97.70;;;;;;5000916;28;20129;-85
2022/09/03 00:05:37;;;;;;;4.30;1.50;;;17.80;97.80;;;;;;4984069;28;20058;-86
2022/09/03 00:08:35;;;;;;;3.47;1.40;;;17.70;97.70;;;;;;4979357;28;20063;-86
2022/09/03 00:11:16;;;;;;;3.83;1.55;;;17.60;97.80;;;;;;4966798;28;20470;-85
2022/09/03 00:13:48;;;;;;;3.78;1.10;;;17.60;98.00;;;;;;4973037;28;20058;-85
2022/09/03 00:16:20;;;;;;;2.83;1.48;;;17.60;98.10;;;;;;4986320;28;20046;-87
2022/09/03 00:18:56;;;;;;;3.28;1.40;;;17.50;98.10;;;;;;4982364;28;20142;-87
2022/09/03 00:21:31;;;;;;;4.53;1.45;;;17.50;98.20;;;;;;4979177;28;20051;-85
2022/09/03 00:24:00;;;;;;;2.90;1.30;;;17.50;98.30;;;;;;4967173;28;20066;-86
2022/09/03 00:26:30;;;;;;;3.00;1.10;;;17.40;98.30;;;;;;4982815;28;20089;-87
2022/09/03 00:29:02;;;;;;;2.97;1.42;;;17.40;98.30;;;;;;4998887;28;20129;-86
2022/09/03 00:31:35;;;;;;;4.97;1.40;;;17.30;98.40;;;;;;4980244;28;20042;-84
2022/09/03 00:34:12;;;;;;;2.38;1.20;;;17.20;98.50;;;;;;4981496;28;21594;-86
2022/09/03 00:36:41;;;;;;;1.95;1.10;;;17.20;98.60;;;;;;4982800;28;20043;-86
2022/09/03 00:39:20;;;;;;;2.00;1.00;;;17.20;98.60;;;;;;4982638;28;20082;-86
2022/09/03 00:42:24;;;;;;;1.65;1.00;;;17.10;98.70;;;;;;4973256;28;20051;-86
2022/09/03 00:45:07;;;;;;;3.63;1.25;;;17.10;98.90;;;;;;4914475;28;20514;-87
2022/09/03 00:48:06;;;;;;;2.60;1.00;;;17.00;98.80;;;;;;4983647;28;20051;-86
2022/09/03 00:50:41;;;;;;;3.05;1.35;;;16.90;98.90;;;;;;4985117;28;20720;-86
2022/09/03 00:53:16;;;;;;;2.38;1.17;;;16.80;98.80;;;;;;4982848;28;20104;-86
2022/09/03 00:56:20;;;;;;;4.18;1.45;;;16.70;98.90;;;;;;4984873;28;20050;-87
2022/09/03 00:59:05;;;;;;;1.92;1.13;;;16.70;99.10;;;;;;4970399;28;20062;-86
2022/09/03 01:02:13;;;;;;;2.70;1.10;;;16.60;99.10;;;;;;4973784;28;20063;-86
2022/09/03 01:04:57;;;;;;;;;;;16.60;99.40;;;;;;4984480;28;20046;-86
2022/09/03 01:07:48;;;;;;;1.80;1.10;;;16.60;99.40;;;;;;4982574;28;19926;-86
2022/09/03 01:10:27;;;;;;;2.10;1.02;;;16.50;99.20;;;;;;4967771;28;20050;-84
2022/09/03 01:13:08;;;;;;;1.27;1.00;;;16.50;99.20;;;;;;4985800;28;20054;-86
2022/09/03 01:15:59;;;;;;;2.75;1.10;;;16.50;99.40;;;;;;4968113;28;20962;-86
2022/09/03 01:18:43;;;;;;;2.35;0.95;;;16.40;99.40;;;;;;4983286;28;20061;-85
2022/09/03 01:21:29;;;;;;;3.35;1.10;;;16.40;99.60;;;;;;4967243;28;20048;-85
2022/09/03 01:24:10;;;;;;;5.55;1.35;;;16.40;99.90;;;;;;4985106;28;20050;-86
2022/09/03 01:26:47;;;;;;;3.25;1.20;;;16.30;99.60;;;;;;4974579;28;20138;-87
2022/09/03 01:29:36;;;;;;;1.60;0.95;;;16.30;99.50;;;;;;4988656;28;20053;-86
2022/09/03 01:32:33;;;;;;;0.93;0.80;;;16.30;99.90;;;;;;4983562;28;20104;-86
2022/09/03 01:35:04;;;;;;;1.88;1.00;;;16.20;99.80;;;;;;4982650;28;20054;-86
2022/09/03 01:38:00;;;;;;;2.10;1.08;;;16.20;99.70;;;;;;4983002;28;20078;-86
2022/09/03 01:40:33;;;;;;;1.95;1.00;;;16.20;99.90;;;;;;4984755;28;20125;-86
2022/09/03 01:43:14;;;;;;;3.38;1.08;;;16.20;99.90;;;;;;4985852;28;20057;-85
2022/09/03 01:45:53;;;;;;;2.15;1.10;;;16.20;99.90;;;;;;4984810;28;20046;-85
2022/09/03 01:48:39;;;;;;;4.80;1.10;;;16.20;99.90;;;;;;4984715;28;20054;-84
2022/09/03 01:51:19;;;;;;;2.00;1.00;;;16.20;99.90;;;;;;4968643;28;20048;-86
2022/09/03 01:54:19;;;;;;;2.15;1.13;;;16.20;99.90;;;;;;4974107;28;20062;-85
2022/09/03 01:57:23;;;;;;;1.75;0.90;;;16.30;99.90;;;;;;4969576;28;20068;-85
2022/09/03 02:00:02;;;;;;;1.70;0.90;;;16.30;99.90;;;;;;4930890;29;20454;-85
2022/09/03 02:02:29;;;;;;;2.85;1.02;;;16.30;99.90;;;;;;4980208;28;20461;-85
2022/09/03 02:05:08;;;;;;;4.18;1.10;;;16.30;99.90;;;;;;4970745;28;20256;-85
2022/09/03 02:07:38;;;;;;;2.28;0.90;;;16.30;99.90;;;;;;4982591;28;20073;-86
2022/09/03 02:10:07;;;;;;;2.30;0.90;;;16.30;99.90;;;;;;5000126;28;20574;-86
2022/09/03 02:12:36;;;;;;;3.13;0.88;;;16.30;99.90;;;;;;4987049;28;20057;-85
2022/09/03 02:15:06;;;;;;;2.22;1.10;;;16.30;99.90;;;;;;4990420;28;20043;-85
2022/09/03 02:17:33;;;;;;;2.42;1.00;;;16.30;99.90;;;;;;4994140;28;20150;-85
2022/09/03 02:20:05;;;;;;;2.53;1.10;;;16.40;99.90;;;;;;4986543;28;20157;-85
2022/09/03 02:22:32;;;;;;;2.05;1.00;;;16.30;99.90;;;;;;4983179;28;20085;-86
2022/09/03 02:24:59;;;;;;;1.02;0.77;;;16.40;99.90;;;;;;4997776;28;20046;-85
2022/09/03 02:27:26;;;;;;;1.73;0.90;;;16.40;99.90;;;;;;4983419;28;20073;-86
2022/09/03 02:29:52;;;;;;;3.33;1.00;;;16.30;99.90;;;;;;4986719;28;20050;-86
2022/09/03 02:32:18;;;;;;;1.85;1.00;;;16.10;99.90;;;;;;4981965;28;20408;-85
2022/09/03 02:34:44;;;;;;;2.10;0.80;;;16.40;99.90;;;;;;4968922;28;20104;-85
2022/09/03 02:37:17;;;;;;;2.03;0.90;;;16.40;99.90;;;;;;4969881;28;20046;-85
2022/09/03 02:39:43;;;;;;;3.97;0.88;;;16.30;99.90;;;;;;4968776;28;20050;-85
2022/09/03 02:42:12;;;;;;;2.00;0.80;;;16.30;99.90;;;;;;4967925;28;20131;-85
2022/09/03 02:44:52;;;;;;;1.83;0.95;;;16.40;99.90;;;;;;4979629;28;20057;-86
2022/09/03 02:47:19;;;;;;;2.20;0.70;;;16.40;99.90;;;;;;4982358;28;20034;-86
2022/09/03 02:49:47;;;;;;;2.70;0.98;;;16.40;99.90;;;;;;4967956;28;20053;-86
2022/09/03 02:52:14;;;;;;;2.05;0.90;;;16.40;99.90;;;;;;4981334;28;20051;-86
2022/09/03 02:54:40;;;;;;;3.78;0.80;;;16.40;99.90;;;;;;4967341;28;20054;-85
2022/09/03 02:57:08;;;;;;;2.75;0.80;;;16.40;99.90;;;;;;4984643;28;20124;-86
2022/09/03 02:59:34;;;;;;;2.30;0.90;;;16.50;99.90;;;;;;4983658;28;20049;-86
2022/09/03 03:02:00;;;;;;;2.47;0.98;;;16.50;99.90;;;;;;4968656;28;20042;-86
2022/09/03 03:04:26;;;;;;;1.63;0.80;;;16.40;99.90;;;;;;4983347;28;20511;-86
2022/09/03 03:06:52;;;;;;;2.92;1.10;;;16.50;99.90;;;;;;4986880;28;20385;-87
2022/09/03 03:09:18;;;;;;;2.05;0.90;;;16.50;99.90;;;;;;4960513;28;20052;-86
2022/09/03 03:11:45;;;;;;;2.35;0.80;;;16.50;99.90;;;;;;4974457;28;20050;-86
2022/09/03 03:14:11;;;;;;;1.40;0.88;;;16.50;99.90;;;;;;4970287;28;20053;-84
2022/09/03 03:16:37;;;;;;;1.38;0.88;;;16.50;99.90;;;;;;4971067;28;20054;-85
2022/09/03 03:19:03;;;;;;;1.45;0.80;;;16.50;99.90;;;;;;4968067;28;20058;-83
2022/09/03 03:21:29;;;;;;;1.40;0.75;;;16.50;99.90;;;;;;4985902;28;20084;-84
2022/09/03 03:23:55;;;;;;;2.70;1.00;;;16.50;99.90;;;;;;4976417;28;20523;-84
2022/09/03 03:26:23;;;;;;;1.02;0.60;;;16.50;99.90;;;;;;4986625;28;20054;-86
2022/09/03 03:28:50;;;;;;;2.88;0.90;;;16.50;99.90;;;;;;4976671;28;20077;-84
2022/09/03 03:31:21;;;;;;;1.35;0.80;;;16.50;99.90;;;;;;4984407;28;20038;-84
2022/09/03 03:33:54;;;;;;;2.35;1.00;;;16.50;99.90;;;;;;4976044;28;20041;-85
2022/09/03 03:36:22;;;;;;;3.97;0.90;;;16.50;99.90;;;;;;4973373;28;20193;-85
2022/09/03 03:38:48;;;;;;;1.60;1.02;;;16.50;99.80;;;;;;4983746;28;20042;-85
2022/09/03 03:41:20;;;;;;;1.40;0.77;;;16.70;99.90;;;;;;4986991;28;20492;-85
2022/09/03 03:43:47;;;;;;;1.90;0.80;;;16.50;99.70;;;;;;4986393;28;20045;-85
2022/09/03 03:46:13;;;;;;;2.10;0.88;;;17.00;99.80;;;;;;4985517;28;20387;-85
2022/09/03 03:48:42;;;;;;;1.25;0.80;;;16.40;99.80;;;;;;5001462;28;20648;-86
2022/09/03 03:51:09;;;;;;;4.28;0.85;;;16.50;99.70;;;;;;4986693;28;20042;-85
2022/09/03 03:53:37;;;;;;;2.05;0.80;;;16.40;99.70;;;;;;4990748;28;20058;-86
2022/09/03 03:56:08;;;;;;;2.63;1.00;;;16.40;99.80;;;;;;4970956;28;20065;-86
2022/09/03 03:58:36;;;;;;;1.60;0.90;;;15.70;99.70;;;;;;4983535;28;20046;-87
2022/09/03 04:01:13;;;;;;;1.85;0.80;;;15.80;99.70;;;;;;4983644;28;20069;-86
2022/09/03 04:03:40;;;;;;;6.07;0.90;;;16.30;99.90;;;;;;4987382;28;20060;-86
2022/09/03 04:06:06;;;;;;;1.50;0.93;;;16.40;99.90;;;;;;4981299;28;20050;-85
2022/09/03 04:08:39;;;;;;;1.58;0.90;;;16.40;99.90;;;;;;4983807;28;20042;-85
2022/09/03 04:11:07;;;;;;;1.60;0.80;;;16.40;99.90;;;;;;4975727;28;20061;-86
2022/09/03 04:13:36;;;;;;;1.83;1.00;;;16.30;99.90;;;;;;4987044;28;20446;-86
2022/09/03 04:16:08;;;;;;;1.63;0.80;;;16.30;99.90;;;;;;4969488;28;20050;-85
2022/09/03 04:18:35;;;;;;;1.83;0.90;;;16.30;99.90;;;;;;4978413;28;20045;-85
2022/09/03 04:21:03;;;;;;;3.15;1.05;;;16.30;99.90;;;;;;4974696;28;20475;-85
2022/09/03 04:23:33;;;;;;;1.58;0.90;;;16.30;99.90;;;;;;4989304;28;20046;-86
2022/09/03 04:26:00;;;;;;;1.25;0.80;;;16.20;99.90;;;;;;4968013;28;20046;-86
2022/09/03 04:28:26;;;;;;;1.67;0.90;;;16.20;99.90;;;;;;4989313;28;20038;-86
2022/09/03 04:30:52;;;;;;;1.48;0.90;;;16.30;99.90;;;;;;4986310;28;20046;-86
2022/09/03 04:33:18;;;;;;;1.55;0.90;;;16.30;99.90;;;;;;4978457;28;20052;-86
2022/09/03 04:35:44;;;;;;;2.20;0.80;;;16.20;99.90;;;;;;4986425;28;20038;-87
2022/09/03 04:38:13;;;;;;;2.45;0.90;;;16.20;99.90;;;;;;4971406;28;20169;-84
2022/09/03 04:40:39;;;;;;;1.23;0.80;;;16.10;99.90;;;;;;4990183;28;20467;-83
2022/09/03 04:43:05;;;;;;;3.78;1.10;;;16.10;99.90;;;;;;4988909;28;20053;-86
2022/09/03 04:45:33;;;;;;;3.13;1.00;;;16.10;99.90;;;;;;4981383;28;20541;-87
2022/09/03 04:48:03;;;;;;;1.65;1.00;;;16.10;99.90;;;;;;4978259;28;20069;-84
2022/09/03 04:50:34;;;;;;;2.42;0.80;;;16.00;99.90;;;;;;4967392;28;20454;-84
2022/09/03 04:53:02;;;;;;;1.75;1.02;;;16.00;99.90;;;;;;4985804;28;20092;-84
2022/09/03 04:55:35;;;;;;;3.80;0.88;;;15.90;99.90;;;;;;4991609;28;20084;-85
2022/09/03 04:58:01;;;;;;;1.50;0.90;;;16.00;99.90;;;;;;4995169;28;20042;-86
2022/09/03 05:00:27;;;;;;;2.65;1.20;;;15.90;99.90;;;;;;4989563;28;20492;-84
2022/09/03 05:02:53;;;;;;;1.58;1.10;;;15.80;99.90;;;;;;4973294;28;20058;-84
2022/09/03 05:05:30;;;;;;;3.78;1.13;;;15.70;99.90;;;;;;4974084;28;20049;-86
2022/09/03 05:08:02;;;;;;;2.10;1.05;;;15.80;99.90;;;;;;4958394;28;20060;-86
2022/09/03 05:10:29;;;;;;;1.75;0.93;;;15.80;99.90;;;;;;4984193;28;20046;-86
2022/09/03 05:13:00;;;;;;;2.13;0.95;;;15.80;99.90;;;;;;4986748;28;20050;-85
2022/09/03 05:15:27;;;;;;;1.98;1.00;;;15.70;99.90;;;;;;4985089;28;20511;-87
2022/09/03 05:18:00;;;;;;;4.22;1.02;;;15.70;99.90;;;;;;4986189;28;20054;-84
2022/09/03 05:20:31;;;;;;;2.17;0.95;;;15.70;99.90;;;;;;4995407;28;20049;-86
2022/09/03 05:23:03;;;;;;;1.92;0.90;;;15.10;99.90;;;;;;4981288;28;20083;-84
2022/09/03 05:25:33;;;;;;;3.25;0.93;;;15.60;99.90;;;;;;4972714;28;20557;-86
2022/09/03 05:28:00;;;;;;;2.05;0.95;;;15.30;99.90;;;;;;4972071;28;20042;-85
2022/09/03 05:30:26;;;;;;;1.10;0.75;;;15.60;99.90;;;;;;4987269;28;20084;-85
2022/09/03 05:32:52;;;;;;;1.60;0.95;;;15.60;99.90;;;;;;4976402;28;20209;-84
2022/09/03 05:35:18;;;;;;;3.92;1.00;;;14.70;99.90;;;;;;4974560;28;20125;-84
2022/09/03 05:37:44;;;;;;;2.25;0.80;;;14.90;99.90;;;;;;4983484;28;20125;-86
2022/09/03 05:40:10;;;;;;;2.85;1.00;;;15.50;99.90;;;;;;4965818;28;20054;-83
2022/09/03 05:42:37;;;;;;;2.47;1.02;;;15.50;99.90;;;;;;4972176;28;20038;-84
2022/09/03 05:45:09;;;;;;;1.70;0.90;;;15.40;99.90;;;;;;4982297;28;20092;-85
2022/09/03 05:47:38;;;;;;;2.40;0.90;;;15.40;99.90;;;;;;4967556;28;20377;-84
2022/09/03 05:50:07;;;;;;;2.65;1.15;;;15.40;99.90;;;;;;4954605;28;20062;-83
2022/09/03 05:52:34;;;;;;;1.45;0.80;;;15.40;99.90;;;;;;4984937;28;20538;-84
2022/09/03 05:55:01;;;;;;;1.08;0.88;;;15.40;99.90;;;;;;4964600;28;20049;-83
2022/09/03 05:57:29;;;;;;;1.85;1.00;;;15.40;99.90;;;;;;4987808;28;20088;-83
2022/09/03 05:59:55;;;;;;;1.63;1.00;;;15.80;99.90;;;;;;4985161;28;20496;-83
2022/09/03 06:02:24;;;;;;;2.33;1.17;;;15.40;99.90;;;;;;4968360;28;20111;-83
2022/09/03 06:04:50;;;;;;;1.10;0.80;;;15.40;99.90;;;;;;4981582;28;20097;-83
2022/09/03 06:07:16;;;;;;;3.63;0.90;;;15.40;99.90;;;;;;4965517;28;20081;-84
2022/09/03 06:09:42;;;;;;;5.13;1.13;;;15.40;99.90;;;;;;4968134;28;20054;-84
2022/09/03 06:12:08;;;;;;;1.85;1.10;;;15.40;99.90;;;;;;4985880;28;20046;-84
2022/09/03 06:14:39;;;;;;;1.48;0.90;;;15.40;99.90;;;;;;4975390;28;20057;-85
2022/09/03 06:17:05;;;;;;;2.47;1.10;;;15.40;99.90;;;;;;4953081;28;20395;-83
2022/09/03 06:19:31;;;;;;;2.33;1.13;;;15.40;99.90;;;;;;4959105;28;20042;-85
2022/09/03 06:22:02;;;;;;;2.65;1.20;;;15.40;99.90;;;;;;4985158;28;20585;-84
2022/09/03 06:24:28;;;;;;;1.92;0.90;;;15.40;99.90;;;;;;4991576;28;20050;-85
2022/09/03 06:26:58;;;;;;;3.95;1.20;;;15.30;99.90;;;;;;4969498;28;20065;-85
2022/09/03 06:29:27;;;;;;;2.33;1.13;;;15.40;99.90;;;;;;4982747;28;20054;-82
2022/09/03 06:31:53;;;;;;;2.47;1.33;;;15.50;99.90;;;;;;4957620;28;20054;-82
2022/09/03 06:34:21;;;;;;;2.70;1.00;;;15.10;99.90;;;;;;4975079;28;20050;-80
2022/09/03 06:36:49;;;;;;;1.63;1.00;;;15.60;99.90;;;;;;4984765;28;20088;-83
2022/09/03 06:39:15;;;;;;;5.55;1.05;;;15.60;99.90;;;;;;4982433;28;20054;-83
2022/09/03 06:41:41;;;;;;;1.52;0.90;;;15.70;99.90;;;;;;4968243;28;20504;-84
2022/09/03 06:44:11;;;;;;;2.65;1.08;;;15.70;99.90;;;;;;4985003;28;20049;-83
2022/09/03 06:47:00;;;;;;;1.73;1.00;;;15.80;99.90;;;;;;4983824;28;20447;-85
2022/09/03 06:49:26;;;;;;;2.72;1.13;;;15.90;99.90;;;;;;4969956;28;20050;-84
2022/09/03 06:51:52;;;;;;;4.38;1.02;;;16.00;99.90;;;;;;4976830;28;20123;-83
2022/09/03 06:54:27;;;;;;;1.73;1.00;;;16.10;99.90;;;;;;4984125;28;20402;-86
2022/09/03 06:56:52;;;;;;;1.90;1.27;;;16.20;99.90;;;;;;4987448;28;20042;-80
2022/09/03 06:59:21;;;;;;;2.30;1.08;;;16.30;99.90;;;;;;4987781;28;20324;-82
2022/09/03 07:01:46;;;;;;;1.85;1.00;;;15.60;99.90;;;;;;4998272;28;20484;-80
2022/09/03 07:04:15;;;;;;;1.48;1.00;;;16.50;99.90;;;;;;4989706;28;20055;-81
2022/09/03 07:06:41;;;;;;;1.13;0.88;;;16.60;99.90;;;;;;4981647;28;20050;-82
2022/09/03 07:09:09;;;;;;;2.10;1.00;;;16.80;99.90;;;;;;4972248;28;20431;-81
2022/09/03 07:11:36;;;;;;;1.77;1.05;;;16.90;99.90;;;;;;4974514;28;20065;-81
2022/09/03 07:14:03;;;;;;;1.63;0.90;;;17.00;99.90;;;;;;4963785;28;20046;-83
2022/09/03 07:16:35;;;;;;;1.38;0.82;;;17.10;99.90;;;;;;4985415;28;20056;-81
2022/09/03 07:19:02;;;;;;;3.78;1.05;;;17.30;99.90;;;;;;4983384;28;20096;-81
2022/09/03 07:21:35;;;;;;;3.67;0.93;;;17.50;99.90;;;;;;4979263;28;20100;-83
2022/09/03 07:24:02;;;;;;;2.55;1.08;;;17.50;99.90;;;;;;4973679;28;20121;-84
2022/09/03 07:26:35;;;;;;;2.28;1.15;;;17.60;99.90;;;;;;4953844;28;20050;-84
2022/09/03 07:29:06;;;;;;;4.40;1.05;;;17.80;99.90;;;;;;4965000;28;20050;-88
2022/09/03 07:31:42;;;;;;;3.60;1.10;;;17.90;99.80;;;;;;4966782;28;20072;-85
2022/09/03 07:34:28;;;;;;;;;;;18.20;99.90;;;;;;4951733;28;20050;-85
2022/09/03 07:36:59;;;;;;;2.28;1.05;;;18.30;99.30;;;;;;4970214;28;19925;-89
2022/09/03 07:39:25;;;;;;;1.98;1.00;;;18.50;99.40;;;;;;4984064;28;20053;-89
2022/09/03 07:42:03;;;;;;;4.33;1.50;;;18.70;99.00;;;;;;4975370;28;20054;-89
2022/09/03 07:44:29;;;;;;;4.30;1.10;;;18.90;98.90;;;;;;4986652;28;20125;-89
2022/09/03 07:46:59;;;;;;;2.97;1.02;;;19.00;98.40;;;;;;4983738;28;20065;-88
2022/09/03 07:49:39;;;;;;;2.00;1.10;;;19.20;98.20;;;;;;4959302;28;20089;-87
2022/09/03 07:52:25;;;;;;;2.60;1.20;;;19.50;97.90;;;;;;4992477;28;20041;-87
2022/09/03 07:55:13;;;;;;;3.60;1.00;;;18.70;97.30;;;;;;4982058;28;20161;-87
2022/09/03 07:57:58;;;;;;;2.25;1.20;;;19.80;97.10;;;;;;4990306;28;20138;-87
2022/09/03 08:00:24;;;;;;;1.70;1.05;;;20.00;97.20;;;;;;4968708;28;20518;-87
2022/09/03 08:02:53;;;;;;;2.30;1.35;;;20.20;96.90;;;;;;4985882;28;20049;-88
2022/09/03 08:05:21;;;;;;;3.08;1.10;;;20.40;96.60;;;;;;4959955;28;20450;-87
2022/09/03 08:07:48;;;;;;;3.15;0.80;;;20.60;96.30;;;;;;4982346;28;20059;-86
2022/09/03 08:10:15;;;;;;;3.65;0.90;;;20.80;95.90;;;;;;4983280;28;20062;-86
2022/09/03 08:12:51;;;;;;;4.35;1.02;;;20.90;95.60;;;;;;4982407;28;20487;-87
2022/09/03 08:15:19;;;;;;;2.50;1.17;;;20.50;95.00;;;;;;4983939;28;20097;-86
2022/09/03 08:17:45;;;;;;;2.53;1.20;;;20.40;94.80;;;;;;4965829;28;20057;-86
2022/09/03 08:20:16;;;;;;;2.08;1.15;;;21.40;94.80;;;;;;4981628;28;20042;-87
2022/09/03 08:22:50;;;;;;;1.75;1.00;;;21.60;94.30;;;;;;4965632;28;20504;-88
2022/09/03 08:25:25;;;;;;;2.70;1.05;;;21.70;93.80;;;;;;4982119;28;20412;-88
2022/09/03 08:27:57;;;;;;;2.45;0.80;;;21.80;93.80;;;;;;4980717;28;20105;-88
2022/09/03 08:30:25;;;;;;;1.23;0.80;;;22.10;93.30;;;;;;4951617;28;20133;-87
2022/09/03 08:32:51;;;;;;;3.78;1.25;;;22.30;93.20;;;;;;4998849;28;20059;-87
2022/09/03 08:35:20;;;;;;;2.42;1.00;;;22.50;92.70;;;;;;4983478;28;20058;-88
2022/09/03 08:37:50;;;;;;;2.63;1.02;;;22.50;92.20;;;;;;4972756;28;20077;-86
2022/09/03 08:40:20;;;;;;;3.17;1.13;;;22.60;91.80;;;;;;4967718;28;20058;-87
2022/09/03 08:43:16;;;;;;;3.15;0.90;;;22.80;91.50;;;;;;4999407;28;20061;-87
2022/09/03 08:45:44;;;;;;;2.55;0.80;;;22.90;90.80;;;;;;4981143;28;20054;-88
2022/09/03 08:48:17;;;;;;;3.13;1.00;;;23.10;90.80;;;;;;4989385;28;20050;-87
2022/09/03 08:50:47;;;;;;;1.65;0.90;;;23.20;90.50;;;;;;4964239;28;20377;-87
2022/09/03 08:53:32;;;;;;;2.25;0.93;;;23.40;90.30;;;;;;4982726;28;20054;-88
2022/09/03 08:56:08;;;;;;;2.67;0.90;;;23.40;89.70;;;;;;4973708;28;20046;-86
2022/09/03 08:58:43;;;;;;;2.17;1.00;;;23.30;89.20;;;;;;4999912;28;20054;-88
2022/09/03 09:01:22;;;;;;;6.38;1.20;;;23.90;88.90;;;;;;4966041;28;20062;-88
2022/09/03 09:04:06;;;;;;;1.30;0.80;;;24.10;88.30;;;;;;4982629;28;20086;-89
2022/09/03 09:06:56;;;;;;;1.35;0.90;;;24.50;87.10;;;;;;4974246;28;20129;-88
2022/09/03 09:10:04;;;;;;;2.20;0.95;;;24.80;85.90;;;;;;4981254;28;20058;-87
2022/09/03 09:12:33;;;;;;;2.47;1.05;;;24.80;84.30;;;;;;4983161;28;20046;-89
2022/09/03 09:15:27;;;;;;;2.13;1.00;;;24.80;84.20;;;;;;4972468;28;20536;-86
2022/09/03 09:18:08;;;;;;;2.88;0.95;;;25.00;81.90;;;;;;4965858;28;20046;-88
2022/09/03 09:20:43;;;;;;;1.20;0.70;;;25.10;82.50;;;;;;4967017;28;20050;-87
2022/09/03 09:23:36;;;;;;;2.47;0.80;;;25.30;81.70;;;;;;4972928;28;20050;-89
2022/09/03 09:26:12;;;;;;;2.63;1.30;;;25.50;80.70;;;;;;4972992;28;20121;-86
2022/09/03 09:28:42;;;;;;;3.55;0.90;;;25.90;81.60;;;;;;4974188;28;20515;-87
2022/09/03 09:31:14;;;;;;;3.30;0.90;;;25.80;80.40;;;;;;4982982;28;20039;-88
2022/09/03 09:33:40;;;;;;;3.35;1.00;;;26.30;79.60;;;;;;4971819;28;20485;-86
2022/09/03 09:36:12;;;;;;;1.38;0.90;;;26.00;78.60;;;;;;4984288;28;20039;-87
2022/09/03 09:38:41;;;;;;;3.33;1.00;;;26.40;77.90;;;;;;4991236;28;20050;-89
2022/09/03 09:41:15;;;;;;;3.22;0.82;;;26.50;77.20;;;;;;4957593;28;20057;-88
2022/09/03 09:43:42;;;;;;;3.03;0.90;;;26.10;74.30;;;;;;4981279;28;20057;-88
2022/09/03 09:46:38;;;;;;;3.88;0.90;;;26.60;76.40;;;;;;4992025;28;20145;-88
2022/09/03 09:49:26;;;;;;;3.42;0.90;;;26.70;73.30;;;;;;4956755;28;20054;-89
2022/09/03 09:52:01;;;;;;;4.65;0.88;;;26.80;75.10;;;;;;4999412;28;20047;-87
2022/09/03 09:54:34;;;;;;;4.28;0.90;;;27.00;74.40;;;;;;4984190;28;20484;-88
2022/09/03 09:57:04;;;;;;;2.00;0.90;;;27.30;74.60;;;;;;4972371;28;20521;-88
2022/09/03 09:59:32;;;;;;;3.92;1.10;;;27.50;74.30;;;;;;4984656;28;20050;-88
2022/09/03 10:02:26;;;;;;;2.28;0.80;;;27.70;73.40;;;;;;4981461;28;20042;-87
2022/09/03 10:04:59;;;;;;;2.75;0.90;;;28.50;72.80;;;;;;4983904;28;20129;-89
2022/09/03 10:07:31;;;;;;;2.65;0.85;;;28.10;72.10;;;;;;4991872;28;20131;-88
2022/09/03 10:10:06;;;;;;;1.63;0.82;;;28.40;71.60;;;;;;4984876;28;20057;-88
2022/09/03 10:12:43;;;;;;;4.00;0.98;;;28.50;70.10;;;;;;4978305;28;20042;-87
2022/09/03 10:15:32;;;;;;;4.47;1.02;;;28.40;68.20;;;;;;4964648;28;20050;-87
2022/09/03 10:18:07;;;;;;;4.32;1.08;;;28.10;68.20;;;;;;4983889;28;20105;-89
2022/09/03 10:21:03;;;;;;;2.55;0.90;;;28.60;68.90;;;;;;4990147;28;20522;-89
2022/09/03 10:23:35;;;;;;;1.60;0.80;;;28.70;68.40;;;;;;4973344;28;20050;-88
2022/09/03 10:26:09;;;;;;;1.55;0.80;;;29.50;68.50;;;;;;4969428;28;20117;-87
2022/09/03 10:28:41;;;;;;;3.05;0.75;;;28.60;67.20;;;;;;4989711;28;20050;-87
2022/09/03 10:31:44;;;;;;;3.60;0.77;;;29.00;66.70;;;;;;4978750;28;20077;-87
2022/09/03 10:34:41;;;;;;;2.00;0.82;;;29.10;65.30;;;;;;4961728;28;20057;-87
2022/09/03 10:37:15;;;;;;;4.18;0.90;;;29.10;63.80;;;;;;4969587;28;20536;-87
2022/09/03 10:40:05;;;;;;;3.47;1.00;;;29.00;65.70;;;;;;4995428;28;20046;-89
2022/09/03 10:43:07;;;;;;;3.33;0.85;;;29.30;64.70;;;;;;4979983;28;20046;-87
2022/09/03 10:45:52;;;;;;;2.33;0.90;;;29.50;64.50;;;;;;4981199;28;20062;-87
2022/09/03 10:48:41;;;;;;;1.52;0.73;;;29.40;63.70;;;;;;4970580;28;20061;-87
2022/09/03 10:51:26;;;;;;;1.60;0.90;;;29.40;63.30;;;;;;4998331;28;20046;-87
2022/09/03 10:53:54;;;;;;;4.97;0.82;;;28.90;62.90;;;;;;4974476;28;20062;-86
2022/09/03 10:56:44;;;;;;;2.58;0.80;;;29.70;63.80;;;;;;4977308;28;20066;-85
2022/09/03 10:59:09;;;;;;;1.80;0.70;;;29.70;63.40;;;;;;4974246;28;20125;-88
2022/09/03 11:02:04;;;;;;;1.85;0.82;;;29.80;63.70;;;;;;4982420;28;20050;-87
2022/09/03 11:04:48;;;;;;;1.38;0.75;;;29.90;61.50;;;;;;4980366;28;20073;-86
2022/09/03 11:07:30;;;;;;;;;;;;;;;;;;;;;
2022/09/03 11:10:10;;;;;;;2.53;0.70;;;30.50;61.90;;;;;;4979657;28;20055;-87
2022/09/03 11:12:43;;;;;;;2.97;0.60;;;30.60;61.40;;;;;;4982808;28;20078;-85
2022/09/03 11:15:11;;;;;;;1.35;0.82;;;30.50;60.30;;;;;;4972034;28;20113;-88
2022/09/03 11:17:51;;;;;;;2.97;1.00;;;30.20;60.20;;;;;;4996219;28;20413;-88
2022/09/03 11:20:26;;;;;;;1.83;0.90;;;30.50;59.60;;;;;;4980670;28;20054;-88
2022/09/03 11:22:58;;;;;;;2.17;0.63;;;30.70;59.90;;;;;;4979965;28;20404;-87
2022/09/03 11:25:31;;;;;;;3.33;0.90;;;30.70;59.60;;;;;;4955310;28;20057;-88
2022/09/03 11:28:25;;;;;;;2.75;0.80;;;30.70;59.10;;;;;;4969967;28;20443;-86
2022/09/03 11:31:24;;;;;;;2.63;0.98;;;30.60;58.60;;;;;;4962716;28;20124;-87
2022/09/03 11:34:00;;;;;;;0.70;0.50;;;30.30;58.60;;;;;;4985736;28;20146;-87
2022/09/03 11:36:33;;;;;;;2.85;0.80;;;30.70;58.50;;;;;;4987929;28;20526;-87
2022/09/03 11:39:11;;;;;;;3.20;0.75;;;30.80;58.30;;;;;;4982673;28;20134;-88
2022/09/03 11:41:47;;;;;;;;;;;;;;;;;;;;;
2022/09/03 11:44:19;;;;;;;2.10;0.70;;;30.70;58.30;;;;;;4978089;28;20528;-87
2022/09/03 11:46:58;;;;;;;2.63;0.82;;;30.90;56.60;;;;;;4982414;28;20046;-88
2022/09/03 11:49:29;;;;;;;3.17;0.93;;;31.00;55.70;;;;;;4970670;28;20480;-87
2022/09/03 11:52:01;;;;;;;1.58;0.63;;;31.00;55.90;;;;;;4962682;28;20150;-87
2022/09/03 11:54:33;;;;;;;3.17;0.70;;;31.20;55.70;;;;;;4970388;28;20512;-87
2022/09/03 11:57:15;;;;;;;3.08;0.68;;;31.30;56.70;;;;;;4994808;28;20095;-88
2022/09/03 11:59:44;;;;;;;2.25;0.77;;;31.40;56.40;;;;;;4970678;28;20057;-85
2022/09/03 12:02:32;;;;;;;3.95;0.90;;;31.10;56.00;;;;;;4985574;28;20161;-85
2022/09/03 12:05:34;;;;;;;1.42;0.57;;;31.60;54.50;;;;;;4969321;28;20054;-85
2022/09/03 12:08:32;;;;;;;2.85;0.70;;;31.70;55.30;;;;;;4999297;28;20066;-84
2022/09/03 12:11:07;;;;;;;1.63;0.70;;;32.00;55.10;;;;;;4960202;28;20484;-86
2022/09/03 12:13:59;;;;;;;3.13;0.80;;;32.20;55.10;;;;;;4984857;28;20050;-84
2022/09/03 12:16:45;;;;;;;1.83;0.80;;;32.30;54.00;;;;;;4965590;28;20058;-84
2022/09/03 12:19:47;;;;;;;4.38;0.95;;;32.20;53.10;;;;;;4964235;28;20573;-84
2022/09/03 12:22:18;;;;;;;2.47;0.82;;;32.20;53.00;;;;;;4970860;28;20492;-86
2022/09/03 12:24:44;;;;;;;1.10;0.60;;;32.30;53.60;;;;;;4983644;28;20097;-86
2022/09/03 12:27:33;;;;;;;;;;;;;;;;;;;;;
2022/09/03 12:30:11;;;;;;;2.17;0.85;;;32.00;51.40;;;;;;4972437;28;20058;-86
2022/09/03 12:32:38;;;;;;;1.10;0.65;;;31.90;52.10;;;;;;4978196;28;20385;-85
2022/09/03 12:35:14;;;;;;;1.70;0.75;;;31.90;52.00;;;;;;4962086;28;20050;-86
2022/09/03 12:37:44;;;;;;;1.90;0.88;;;31.90;50.50;;;;;;4966199;28;20066;-84
2022/09/03 12:40:22;;;;;;;1.83;0.73;;;31.90;51.60;;;;;;4976000;28;20099;-84
2022/09/03 12:43:12;;;;;;;3.58;1.00;;;32.10;50.90;;;;;;4968535;28;20053;-89
2022/09/03 12:45:48;;;;;;;3.00;0.90;;;32.10;51.50;;;;;;4977216;28;20097;-86
2022/09/03 12:48:23;;;;;;;3.30;0.90;;;31.70;50.50;;;;;;4994178;28;20090;-88
2022/09/03 12:51:10;;;;;;;1.55;0.77;;;32.40;50.60;;;;;;4973592;28;20089;-86
2022/09/03 12:53:41;;;;;;;1.63;0.70;;;32.40;49.40;;;;;;4968750;28;20497;-86
2022/09/03 12:56:09;;;;;;;2.83;0.70;;;32.40;50.30;;;;;;4957523;28;20448;-87
2022/09/03 12:58:52;;;;;;;3.10;0.65;;;32.50;50.30;;;;;;4979274;28;20097;-88
2022/09/03 13:01:29;;;;;;;2.42;0.90;;;32.60;50.10;;;;;;4962619;28;20536;-84
2022/09/03 13:04:09;;;;;;;2.10;0.80;;;32.60;48.70;;;;;;4958980;28;20123;-83
2022/09/03 13:07:09;;;;;;;1.55;0.80;;;32.70;49.40;;;;;;4994655;28;20050;-84
2022/09/03 13:09:40;;;;;;;2.25;0.73;;;32.80;48.90;;;;;;4963972;28;20405;-84
2022/09/03 13:12:19;;;;;;;1.65;0.70;;;32.90;48.70;;;;;;4981515;28;20042;-85
2022/09/03 13:14:47;;;;;;;1.75;0.70;;;32.60;48.70;;;;;;4974923;28;20050;-85
2022/09/03 13:18:01;;;;;;;2.50;0.90;;;32.80;49.00;;;;;;4963055;28;20130;-84
2022/09/03 13:21:04;;;;;;;2.72;0.77;;;33.00;48.20;;;;;;4969542;28;20099;-85
2022/09/03 13:23:39;;;;;;;2.00;0.80;;;32.60;48.60;;;;;;4992569;28;20045;-85
2022/09/03 13:26:27;;;;;;;1.35;0.68;;;32.50;48.60;;;;;;5000019;28;20550;-85
2022/09/03 13:29:21;;;;;;;1.45;0.70;;;32.70;47.70;;;;;;4983931;28;20064;-84